createdAt,value
2023-04-14T00:00:45.199Z,14.07
2023-04-14T00:03:12.377Z,15.90
2023-04-14T00:05:39.590Z,14.57
2023-04-14T00:08:06.569Z,20.77
2023-04-14T00:10:33.572Z,19.08
2023-04-14T00:13:01.533Z,17.42
2023-04-14T00:15:28.533Z,18.63
2023-04-14T00:17:55.611Z,18.10
2023-04-14T00:20:22.560Z,17.52
2023-04-14T00:22:49.515Z,18.48
2023-04-14T00:25:16.566Z,18.55
2023-04-14T00:27:45.966Z,15.05
2023-04-14T00:30:12.957Z,19.55
2023-04-14T00:32:39.896Z,18.95
2023-04-14T00:35:07.149Z,19.83
2023-04-14T00:37:37.052Z,15.45
2023-04-14T00:40:11.017Z,17.05
2023-04-14T00:42:45.839Z,20.00
2023-04-14T00:45:14.004Z,20.63
2023-04-14T00:47:42.794Z,16.38
2023-04-14T00:50:10.568Z,17.15
2023-04-14T00:52:38.944Z,13.75
2023-04-14T00:55:06.734Z,18.90
2023-04-14T00:57:36.284Z,23.30
2023-04-14T01:00:05.374Z,16.08
2023-04-14T01:02:32.890Z,20.88
2023-04-14T01:05:00.403Z,15.88
2023-04-14T01:07:28.306Z,22.52
2023-04-14T01:09:57.234Z,20.27
2023-04-14T01:12:53.492Z,17.08
2023-04-14T01:15:29.194Z,20.02
2023-04-14T01:18:24.084Z,21.55
2023-04-14T01:20:56.690Z,20.00
2023-04-14T01:23:32.240Z,15.88
2023-04-14T01:26:19.161Z,22.65
2023-04-14T01:29:30.451Z,16.02
2023-04-14T01:32:10.550Z,16.33
2023-04-14T01:34:52.114Z,20.13
2023-04-14T01:37:31.850Z,19.00
2023-04-14T01:40:05.704Z,14.90
2023-04-14T01:42:36.686Z,22.17
2023-04-14T01:45:11.770Z,22.58
2023-04-14T01:47:40.566Z,23.27
2023-04-14T01:50:09.896Z,21.67
2023-04-14T01:52:38.448Z,18.13
2023-04-14T01:55:07.107Z,16.17
2023-04-14T01:57:35.869Z,20.15
2023-04-14T02:00:05.081Z,16.30
2023-04-14T02:02:33.388Z,14.27
2023-04-14T02:05:02.043Z,18.73
2023-04-14T02:07:30.184Z,19.13
2023-04-14T02:09:58.552Z,17.75
2023-04-14T02:12:28.296Z,15.07
2023-04-14T02:14:56.183Z,19.60
2023-04-14T02:17:24.553Z,16.52
2023-04-14T02:19:52.902Z,21.52
2023-04-14T02:22:19.982Z,19.67
2023-04-14T02:24:48.138Z,17.23
2023-04-14T02:27:18.818Z,19.95
2023-04-14T02:29:56.400Z,24.67
2023-04-14T02:32:25.779Z,18.55
2023-04-14T02:35:01.644Z,19.67
2023-04-14T02:37:37.684Z,20.45
2023-04-14T02:40:12.936Z,19.05
2023-04-14T02:42:45.002Z,15.93
2023-04-14T02:45:15.038Z,26.23
2023-04-14T02:47:46.241Z,21.42
2023-04-14T02:50:15.771Z,16.75
2023-04-14T02:52:47.220Z,20.77
2023-04-14T02:55:14.299Z,20.70
2023-04-14T02:57:41.506Z,17.02
2023-04-14T03:00:09.416Z,18.70
2023-04-14T03:02:38.586Z,18.80
2023-04-14T03:05:06.899Z,24.23
2023-04-14T03:07:34.710Z,19.85
2023-04-14T03:10:02.095Z,22.67
2023-04-14T03:12:29.941Z,24.10
2023-04-14T03:14:58.250Z,27.00
2023-04-14T03:17:26.120Z,30.55
2023-04-14T03:19:53.951Z,31.23
2023-04-14T03:22:22.223Z,36.80
2023-04-14T03:24:50.615Z,20.75
2023-04-14T03:27:22.958Z,22.77
2023-04-14T03:29:53.759Z,24.33
2023-04-14T03:32:26.577Z,23.98
2023-04-14T03:34:58.610Z,21.33
2023-04-14T03:37:27.524Z,26.60
2023-04-14T03:40:00.635Z,20.75
2023-04-14T03:42:29.703Z,26.83
2023-04-14T03:45:00.680Z,31.42
2023-04-14T03:47:31.734Z,32.30
2023-04-14T03:50:01.371Z,28.20
2023-04-14T03:52:33.191Z,24.48
2023-04-14T03:55:03.528Z,28.92
2023-04-14T03:57:32.940Z,24.58
2023-04-14T04:00:05.222Z,25.17
2023-04-14T04:02:33.313Z,34.70
2023-04-14T04:05:01.605Z,30.83
2023-04-14T04:07:31.037Z,22.52
2023-04-14T04:09:59.109Z,26.13
2023-04-14T04:12:26.490Z,27.17
2023-04-14T04:14:53.383Z,37.97
2023-04-14T04:17:24.043Z,28.55
2023-04-14T04:19:51.703Z,36.75
2023-04-14T04:22:21.929Z,33.80
2023-04-14T04:24:50.620Z,26.55
2023-04-14T04:27:27.743Z,31.17
2023-04-14T04:29:55.883Z,28.77
2023-04-14T04:32:23.590Z,28.77
2023-04-14T04:34:51.554Z,33.30
2023-04-14T04:37:19.924Z,32.25
2023-04-14T04:39:48.726Z,39.42
2023-04-14T04:42:16.505Z,24.08
2023-04-14T04:44:43.409Z,45.33
2023-04-14T04:47:11.672Z,42.13
2023-04-14T04:49:38.505Z,37.67
2023-04-14T04:52:05.485Z,31.75
2023-04-14T04:54:32.364Z,31.17
2023-04-14T04:57:00.030Z,39.60
2023-04-14T04:59:27.174Z,50.17
2023-04-14T05:01:54.093Z,37.97
2023-04-14T05:04:21.659Z,28.75
2023-04-14T05:06:48.552Z,39.63
2023-04-14T05:09:15.661Z,35.75
2023-04-14T05:11:42.577Z,35.70
2023-04-14T05:14:09.698Z,44.78
2023-04-14T05:16:36.726Z,45.00
2023-04-14T05:19:05.643Z,38.45
2023-04-14T05:21:36.550Z,33.47
2023-04-14T05:24:11.305Z,37.95
2023-04-14T05:29:10.712Z,42.97
2023-04-14T05:31:38.922Z,40.58
2023-04-14T05:34:06.125Z,38.10
2023-04-14T05:36:33.105Z,40.97
2023-04-14T05:39:00.308Z,39.30
2023-04-14T05:41:27.261Z,40.25
2023-04-14T05:43:54.488Z,43.78
2023-04-14T05:46:21.491Z,46.53
2023-04-14T05:48:49.541Z,57.53
2023-04-14T05:51:26.018Z,45.78
2023-04-14T05:54:01.042Z,39.55
2023-04-14T05:56:34.364Z,40.10
2023-04-14T05:59:05.189Z,41.33
2023-04-14T06:01:36.630Z,44.15
2023-04-14T06:04:07.159Z,50.28
2023-04-14T06:06:42.225Z,43.47
2023-04-14T06:09:09.463Z,49.40
2023-04-14T06:11:38.770Z,46.40
2023-04-14T06:14:09.684Z,45.38
2023-04-14T06:16:38.489Z,44.55
2023-04-14T06:19:05.685Z,35.83
2023-04-14T06:21:34.297Z,40.25
2023-04-14T06:24:07.385Z,144.95
2023-04-14T06:26:38.284Z,43.50
2023-04-14T06:29:08.680Z,34.13
2023-04-14T06:31:39.047Z,33.00
2023-04-14T06:34:06.467Z,36.33
2023-04-14T06:36:33.582Z,47.03
2023-04-14T06:39:06.277Z,46.60
2023-04-14T06:41:40.069Z,33.38
2023-04-14T06:44:13.071Z,43.38
2023-04-14T06:46:51.903Z,39.53
2023-04-14T06:49:22.195Z,36.17
2023-04-14T06:51:50.421Z,38.50
2023-04-14T06:54:17.473Z,52.13
2023-04-14T06:56:44.317Z,38.97
2023-04-14T06:59:11.209Z,31.52
2023-04-14T07:01:38.356Z,39.92
2023-04-14T07:04:07.688Z,37.83
2023-04-14T07:06:35.122Z,35.55
2023-04-14T07:09:01.973Z,40.50
2023-04-14T07:11:30.334Z,38.85
2023-04-14T07:13:57.473Z,35.20
2023-04-14T07:16:27.064Z,37.80
2023-04-14T07:18:53.927Z,34.17
2023-04-14T07:21:20.763Z,56.72
2023-04-14T07:23:47.606Z,40.50
2023-04-14T07:26:14.664Z,41.08
2023-04-14T07:28:42.522Z,37.08
2023-04-14T07:31:10.652Z,35.95
2023-04-14T07:33:37.627Z,36.25
2023-04-14T07:36:04.957Z,37.78
2023-04-14T07:38:35.273Z,33.35
2023-04-14T07:41:04.814Z,38.58
2023-04-14T07:43:35.517Z,35.47
2023-04-14T07:46:05.295Z,48.92
2023-04-14T07:48:39.280Z,34.97
2023-04-14T07:51:06.924Z,51.42
2023-04-14T07:53:34.574Z,43.38
2023-04-14T07:56:01.970Z,46.15
2023-04-14T07:58:29.620Z,44.67
2023-04-14T08:00:57.641Z,44.50
2023-04-14T08:03:32.462Z,43.85
2023-04-14T08:06:02.204Z,53.03
2023-04-14T08:08:29.340Z,50.85
2023-04-14T08:10:56.448Z,49.97
2023-04-14T08:13:29.576Z,41.20
2023-04-14T08:15:56.776Z,48.13
2023-04-14T08:18:23.736Z,49.60
2023-04-14T08:20:54.592Z,43.30
2023-04-14T08:23:23.788Z,41.58
2023-04-14T08:25:59.316Z,38.60
2023-04-14T08:28:30.511Z,48.67
2023-04-14T08:30:58.409Z,44.80
2023-04-14T08:33:26.208Z,53.90
2023-04-14T08:35:59.498Z,39.28
2023-04-14T08:38:29.322Z,37.03
2023-04-14T08:40:57.672Z,45.30
2023-04-14T08:43:24.747Z,42.38
2023-04-14T08:46:16.503Z,45.30
2023-04-14T08:49:03.720Z,38.03
2023-04-14T08:51:41.204Z,43.17
2023-04-14T08:54:12.747Z,38.65
2023-04-14T08:56:42.488Z,38.45
2023-04-14T08:59:11.351Z,47.90
2023-04-14T09:01:45.371Z,37.17
2023-04-14T09:04:14.532Z,35.40
2023-04-14T09:06:41.530Z,37.33
2023-04-14T09:09:08.865Z,39.60
2023-04-14T09:11:37.557Z,43.17
2023-04-14T09:14:05.140Z,37.83
2023-04-14T09:16:32.916Z,40.72
2023-04-14T09:19:07.377Z,41.92
2023-04-14T09:21:52.451Z,41.67
2023-04-14T09:24:31.195Z,39.95
2023-04-14T09:27:05.116Z,39.78
2023-04-14T09:29:33.316Z,31.88
2023-04-14T09:32:00.379Z,37.55
2023-04-14T09:34:27.434Z,36.78
2023-04-14T09:37:06.634Z,51.45
2023-04-14T09:39:52.907Z,44.63
2023-04-14T09:43:04.456Z,48.08
2023-04-14T09:45:45.097Z,45.67
2023-04-14T09:48:16.379Z,44.90
2023-04-14T09:50:58.643Z,45.35
2023-04-14T09:53:34.376Z,49.70
2023-04-14T09:56:06.518Z,54.45
2023-04-14T09:58:38.750Z,48.42
2023-04-14T10:01:16.398Z,51.10
2023-04-14T10:03:47.929Z,44.00
2023-04-14T10:06:22.334Z,42.03
2023-04-14T10:08:51.603Z,45.35
2023-04-14T10:11:27.650Z,49.95
2023-04-14T10:13:56.711Z,50.33
2023-04-14T10:16:24.576Z,46.53
2023-04-14T10:18:53.147Z,42.33
2023-04-14T10:21:24.543Z,36.05
2023-04-14T10:23:52.488Z,45.10
2023-04-14T10:26:20.059Z,44.90
2023-04-14T10:28:51.388Z,38.65
2023-04-14T10:31:29.367Z,45.83
2023-04-14T10:33:56.620Z,41.70
2023-04-14T10:36:28.841Z,57.97
2023-04-14T10:39:04.459Z,37.03
2023-04-14T10:41:47.671Z,37.35
2023-04-14T10:44:28.378Z,47.10
2023-04-14T10:46:57.103Z,49.38
2023-04-14T10:49:41.753Z,52.90
2023-04-14T10:52:14.869Z,43.95
2023-04-14T10:55:07.600Z,57.15
2023-04-14T10:57:42.381Z,52.20
2023-04-14T11:00:31.944Z,99.10
2023-04-14T11:02:59.084Z,77.93
2023-04-14T11:05:26.362Z,44.58
2023-04-14T11:08:01.441Z,98.70
2023-04-14T11:10:33.265Z,45.10
2023-04-14T11:13:08.503Z,64.85
2023-04-14T11:15:49.086Z,45.67
2023-04-14T11:18:32.552Z,50.95
2023-04-14T11:21:09.422Z,47.38
2023-04-14T11:23:37.613Z,45.67
2023-04-14T11:26:11.434Z,43.90
2023-04-14T11:28:41.466Z,48.17
2023-04-14T11:31:10.791Z,55.30
2023-04-14T11:33:39.782Z,53.28
2023-04-14T11:36:07.730Z,51.88
2023-04-14T11:38:36.142Z,48.83
2023-04-14T11:41:03.951Z,59.25
2023-04-14T11:43:30.882Z,52.95
2023-04-14T11:45:59.100Z,42.97
2023-04-14T11:48:28.314Z,34.90
2023-04-14T11:50:56.308Z,30.55
2023-04-14T11:53:23.133Z,18.63
2023-04-14T11:55:59.022Z,18.67
2023-04-14T11:58:27.304Z,23.55
2023-04-14T12:03:42.114Z,27.50
2023-04-14T12:06:11.875Z,23.83
2023-04-14T12:08:38.757Z,21.42
2023-04-14T12:11:15.726Z,26.67
2023-04-14T12:13:44.730Z,23.38
2023-04-14T12:16:16.184Z,16.45
2023-04-14T12:18:45.510Z,24.63
2023-04-14T12:21:26.539Z,13.70
2023-04-14T12:23:57.922Z,19.60
2023-04-14T12:26:28.432Z,11.73
2023-04-14T12:29:14.508Z,4.97
2023-04-14T12:35:24.399Z,6.05
2023-04-14T12:37:59.646Z,5.78
2023-04-14T12:43:31.208Z,6.88
2023-04-14T12:46:04.052Z,9.32
2023-04-14T12:48:49.448Z,0.00
2023-04-14T12:51:33.010Z,0.00
2023-04-14T12:54:09.451Z,0.00
2023-04-14T12:56:43.296Z,0.00
2023-04-14T12:59:18.609Z,0.00
2023-04-14T13:01:47.105Z,0.00
2023-04-14T13:04:23.096Z,0.00
2023-04-14T13:06:53.687Z,0.00
2023-04-14T13:09:23.373Z,0.00
2023-04-14T13:11:54.179Z,0.00
2023-04-14T13:14:24.569Z,0.00
2023-04-14T13:17:01.298Z,0.00
2023-04-14T13:19:28.747Z,0.00
2023-04-14T13:22:04.719Z,0.00
2023-04-14T13:34:33.373Z,0.00
2023-04-14T13:37:03.686Z,0.00
2023-04-14T13:39:32.560Z,0.00
2023-04-14T13:42:08.971Z,0.00
2023-04-14T13:44:56.824Z,0.00
2023-04-14T13:47:37.940Z,0.00
2023-04-14T13:50:24.665Z,0.10
2023-04-14T13:53:18.323Z,0.00
2023-04-14T13:55:54.872Z,0.00
2023-04-14T13:58:29.839Z,0.00
2023-04-14T14:00:58.914Z,0.00
2023-04-14T14:03:31.537Z,0.00
2023-04-14T14:06:00.337Z,0.00
2023-04-14T14:08:27.700Z,0.00
2023-04-14T14:10:54.636Z,0.00
2023-04-14T14:13:22.072Z,0.00
2023-04-14T14:15:52.776Z,0.00
2023-04-14T14:18:19.812Z,0.00
2023-04-14T14:20:50.007Z,0.00
2023-04-14T14:23:20.759Z,0.00
2023-04-14T14:25:58.644Z,0.00
2023-04-14T14:28:28.655Z,0.00
2023-04-14T14:31:00.463Z,0.00
2023-04-14T14:33:27.879Z,0.00
2023-04-14T14:35:54.908Z,0.00
2023-04-14T14:38:21.991Z,0.00
2023-04-14T14:40:48.843Z,0.00
2023-04-14T14:43:15.816Z,0.00
2023-04-14T14:45:42.863Z,0.00
2023-04-14T14:48:11.710Z,0.00
2023-04-14T14:50:38.808Z,0.00
2023-04-14T14:53:05.987Z,0.00
2023-04-14T14:55:35.086Z,0.00
2023-04-14T14:58:03.912Z,0.00
2023-04-14T15:00:30.795Z,0.00
2023-04-14T15:02:57.972Z,0.00
2023-04-14T15:05:25.270Z,0.00
2023-04-14T15:07:52.144Z,0.00
2023-04-14T15:10:19.187Z,0.00
2023-04-14T15:12:46.052Z,0.00
2023-04-14T15:15:13.185Z,0.00
2023-04-14T15:17:40.233Z,0.00
2023-04-14T15:20:08.481Z,0.00
2023-04-14T15:22:36.087Z,0.00
2023-04-14T15:25:03.091Z,0.00
2023-04-14T15:27:30.133Z,0.00
2023-04-14T15:29:57.355Z,0.00
2023-04-14T15:32:26.830Z,0.00
2023-04-14T15:34:54.778Z,0.00
2023-04-14T15:37:21.828Z,0.00
2023-04-14T15:39:51.090Z,0.00
2023-04-14T15:42:18.001Z,0.00
2023-04-14T15:44:46.358Z,0.00
2023-04-14T15:47:13.167Z,0.00
2023-04-14T15:49:49.880Z,0.00
2023-04-14T15:52:19.425Z,0.00
2023-04-14T15:54:46.457Z,0.00
2023-04-14T15:57:13.398Z,0.00
2023-04-14T15:59:40.764Z,0.00
2023-04-14T16:02:11.141Z,0.00
2023-04-14T16:04:38.240Z,0.00
2023-04-14T16:07:05.177Z,0.00
2023-04-14T16:09:32.132Z,0.00
2023-04-14T16:11:59.009Z,0.00
2023-04-14T16:14:25.923Z,0.00
2023-04-14T16:16:53.338Z,0.00
2023-04-14T16:19:21.297Z,0.00
2023-04-14T16:21:48.544Z,0.00
2023-04-14T16:24:15.591Z,0.00
2023-04-14T16:26:42.936Z,0.00
2023-04-14T16:29:09.811Z,0.40
2023-04-14T16:31:37.187Z,0.00
2023-04-14T16:34:04.784Z,0.00
2023-04-14T16:36:31.733Z,0.00
2023-04-14T16:38:58.660Z,0.00
2023-04-14T16:41:26.038Z,0.00
2023-04-14T16:43:52.941Z,0.00
2023-04-14T16:46:19.878Z,0.00
2023-04-14T16:48:46.815Z,0.00
2023-04-14T16:51:13.711Z,0.00
2023-04-14T16:53:40.952Z,0.00
2023-04-14T16:56:09.511Z,0.00
2023-04-14T16:58:38.244Z,0.00
2023-04-14T17:01:06.488Z,0.00
2023-04-14T17:03:36.711Z,0.00
2023-04-14T17:06:04.685Z,0.00
2023-04-14T17:08:31.712Z,0.00
2023-04-14T17:11:12.126Z,0.00
2023-04-14T17:13:51.647Z,0.00
2023-04-14T17:16:31.082Z,0.00
2023-04-14T17:19:03.198Z,0.00
2023-04-14T17:24:22.890Z,0.00
2023-04-14T17:27:20.430Z,0.00
2023-04-14T17:33:47.418Z,0.00
2023-04-14T17:36:25.766Z,0.00
2023-04-14T17:38:57.807Z,0.00
2023-04-14T17:44:39.464Z,0.00
2023-04-14T17:47:15.345Z,0.00
2023-04-14T17:49:46.252Z,0.00
2023-04-14T17:52:38.390Z,0.00
2023-04-14T17:55:20.949Z,0.00
2023-04-14T17:57:51.574Z,0.00
2023-04-14T18:00:30.138Z,0.00
2023-04-14T18:03:05.833Z,0.00
2023-04-14T18:05:47.560Z,0.00
2023-04-14T18:08:19.062Z,0.00
2023-04-14T18:10:50.993Z,0.00
2023-04-14T18:13:19.120Z,0.00
2023-04-14T18:15:47.915Z,0.00
2023-04-14T18:18:15.643Z,0.00
2023-04-14T18:20:45.814Z,0.00
2023-04-14T18:23:12.820Z,0.00
2023-04-14T18:28:09.420Z,0.00
2023-04-14T18:30:38.106Z,0.00
2023-04-14T18:33:05.119Z,0.00
2023-04-14T18:35:33.647Z,0.00
2023-04-14T18:38:00.515Z,0.00
2023-04-14T18:40:27.823Z,0.00
2023-04-14T18:42:56.996Z,0.00
2023-04-14T18:45:24.174Z,0.00
2023-04-14T18:47:51.209Z,0.00
2023-04-14T18:50:20.292Z,0.00
2023-04-14T18:52:47.514Z,0.00
2023-04-14T18:55:18.855Z,0.00
2023-04-14T18:57:48.957Z,0.00
2023-04-14T19:00:16.677Z,0.00
2023-04-14T19:02:43.532Z,0.00
2023-04-14T19:05:11.745Z,0.00
2023-04-14T19:07:40.476Z,0.00
2023-04-14T19:10:07.953Z,0.00
2023-04-14T19:12:34.736Z,0.00
2023-04-14T19:15:02.914Z,0.00
2023-04-14T19:17:33.576Z,0.00
2023-04-14T19:20:01.122Z,0.00
2023-04-14T19:22:28.398Z,0.00
2023-04-14T19:24:55.856Z,0.00
2023-04-14T19:27:22.703Z,0.00
2023-04-14T19:29:49.569Z,0.00
2023-04-14T19:32:16.673Z,0.00
2023-04-14T19:34:43.479Z,0.00
2023-04-14T19:37:11.336Z,0.00
2023-04-14T19:39:38.202Z,0.00
2023-04-14T19:42:05.074Z,0.00
2023-04-14T19:44:32.221Z,0.00
2023-04-14T19:46:59.163Z,0.00
2023-04-14T19:49:26.273Z,0.00
2023-04-14T19:51:53.393Z,0.00
2023-04-14T19:54:20.468Z,0.00
2023-04-14T19:56:47.357Z,0.00
2023-04-14T19:59:14.118Z,0.00
2023-04-14T20:01:41.091Z,0.00
2023-04-14T20:04:12.095Z,0.00
2023-04-14T20:06:40.939Z,0.00
2023-04-14T20:09:07.796Z,0.00
2023-04-14T20:11:34.804Z,0.00
2023-04-14T20:14:01.603Z,0.00
2023-04-14T20:16:28.459Z,0.00
2023-04-14T20:18:55.500Z,0.00
2023-04-14T20:21:22.547Z,0.00
2023-04-14T20:23:49.373Z,0.00
2023-04-14T20:26:16.704Z,0.00
2023-04-14T20:28:43.829Z,0.00
2023-04-14T20:31:11.679Z,0.00
2023-04-14T20:33:38.477Z,0.00
2023-04-14T20:36:06.681Z,0.00
2023-04-14T20:38:34.501Z,0.10
2023-04-14T20:41:01.446Z,0.00
2023-04-14T20:43:33.470Z,0.00
2023-04-14T20:46:01.487Z,0.00
2023-04-14T20:48:29.149Z,0.00
2023-04-14T20:50:56.094Z,0.00
2023-04-14T20:53:26.525Z,0.00
2023-04-14T20:55:53.752Z,0.00
2023-04-14T20:58:20.636Z,0.00
2023-04-14T21:00:47.593Z,0.00
2023-04-14T21:03:14.528Z,0.00
2023-04-14T21:05:41.487Z,0.00
2023-04-14T21:08:09.664Z,0.00
2023-04-14T21:10:36.394Z,0.00
2023-04-14T21:15:43.494Z,0.00
2023-04-14T21:16:14.615Z,0.00
2023-04-14T21:18:41.557Z,0.00
2023-04-14T21:21:10.752Z,0.00
2023-04-14T21:23:37.782Z,0.00
2023-04-14T21:26:04.750Z,0.00
2023-04-14T21:28:32.633Z,0.00
2023-04-14T21:31:02.971Z,0.00
2023-04-14T21:33:30.252Z,0.00
2023-04-14T21:35:57.668Z,0.00
2023-04-14T21:38:25.193Z,0.00
2023-04-14T21:40:52.247Z,0.00
2023-04-14T21:43:19.087Z,0.00
2023-04-14T21:45:45.922Z,0.00
2023-04-14T21:48:12.756Z,0.00
2023-04-14T21:50:39.717Z,0.00
2023-04-14T21:53:06.570Z,0.00
2023-04-14T21:55:33.440Z,0.00
2023-04-14T21:58:01.734Z,0.00
2023-04-14T22:00:28.463Z,0.00
2023-04-14T22:02:55.440Z,0.00
2023-04-14T22:05:22.664Z,0.00
2023-04-14T22:07:49.766Z,0.00
2023-04-14T22:10:16.555Z,0.00
2023-04-14T22:12:44.648Z,0.00
2023-04-14T22:15:11.540Z,0.00
2023-04-14T22:17:38.872Z,0.00
2023-04-14T22:20:07.063Z,0.00
2023-04-14T22:22:36.977Z,0.00
2023-04-14T22:25:04.489Z,0.00
2023-04-14T22:27:33.846Z,0.00
2023-04-14T22:30:01.931Z,0.00
2023-04-14T22:32:28.805Z,0.00
2023-04-14T22:34:55.664Z,0.00
2023-04-14T22:37:22.456Z,0.00
2023-04-14T22:39:49.293Z,0.00
2023-04-14T22:42:16.073Z,0.00
2023-04-14T22:44:42.859Z,0.00
2023-04-14T22:47:09.657Z,0.00
2023-04-14T22:49:36.433Z,0.00
2023-04-14T22:52:03.310Z,0.00
2023-04-14T22:54:30.142Z,0.00
2023-04-14T22:56:57.137Z,0.00
2023-04-14T22:59:25.664Z,0.00
2023-04-14T23:01:53.523Z,0.00
2023-04-14T23:04:20.516Z,0.00
2023-04-14T23:06:47.938Z,0.00
2023-04-14T23:09:15.242Z,0.00
2023-04-14T23:11:42.075Z,0.00
2023-04-14T23:14:08.879Z,0.00
2023-04-14T23:16:35.959Z,0.00
2023-04-14T23:19:02.974Z,0.00
2023-04-14T23:21:30.200Z,0.00
2023-04-14T23:23:56.979Z,0.00
2023-04-14T23:26:23.748Z,0.00
2023-04-14T23:28:50.636Z,0.00
2023-04-14T23:31:17.946Z,0.00
2023-04-14T23:33:45.395Z,0.00
2023-04-14T23:36:13.455Z,0.00
2023-04-14T23:38:40.294Z,0.00
2023-04-14T23:41:07.168Z,0.00
2023-04-14T23:43:34.519Z,0.00
2023-04-14T23:46:01.920Z,0.00
2023-04-14T23:48:28.702Z,0.00
2023-04-14T23:50:58.943Z,0.00
2023-04-14T23:53:29.787Z,0.00
2023-04-14T23:55:56.602Z,0.00
2023-04-14T23:58:26.871Z,0.00
